Time;durP1;ratioP1;P1;durP2;ratioP2;P2;SDS_P1;SDS_P2;PMS_P1;PMS_P2;Temp;Humidity;BMP_temperature;BMP_pressure;BME280_temperature;BME280_humidity;BME280_pressure;Samples;Min_cycle;Max_cycle;Signal;HPM_P1;HPM_P2
2022/02/18 00:00:54;;;;;;;0.50;0.50;;;;;;;;;;4995026;28;20595;-63
2022/02/18 00:03:20;;;;;;;0.47;0.47;;;;;;;;;;4995378;28;20169;-63
2022/02/18 00:05:46;;;;;;;0.50;0.50;;;;;;;;;;4995268;28;20178;-64
2022/02/18 00:08:13;;;;;;;0.50;0.50;;;;;;;;;;4995134;28;20212;-63
2022/02/18 00:10:39;;;;;;;0.50;0.50;;;;;;;;;;4994847;28;20457;-63
2022/02/18 00:13:04;;;;;;;0.40;0.40;;;;;;;;;;4995086;28;20182;-63
2022/02/18 00:15:30;;;;;;;0.50;0.50;;;;;;;;;;4995012;28;20175;-63
2022/02/18 00:17:56;;;;;;;0.50;0.50;;;;;;;;;;4994843;28;20402;-63
2022/02/18 00:20:23;;;;;;;0.40;0.40;;;;;;;;;;4994793;28;20189;-63
2022/02/18 00:22:49;;;;;;;0.40;0.40;;;;;;;;;;4995043;28;20428;-63
2022/02/18 00:25:15;;;;;;;0.40;0.40;;;;;;;;;;4994877;28;20182;-63
2022/02/18 00:27:41;;;;;;;0.50;0.50;;;;;;;;;;4994862;28;20413;-63
2022/02/18 00:30:08;;;;;;;0.40;0.40;;;;;;;;;;4994460;28;20552;-63
2022/02/18 00:32:34;;;;;;;0.40;0.40;;;;;;;;;;4994692;28;20711;-62
2022/02/18 00:35:00;;;;;;;0.40;0.40;;;;;;;;;;4994760;28;20653;-64
2022/02/18 00:37:27;;;;;;;0.40;0.40;;;;;;;;;;4994857;28;20205;-64
2022/02/18 00:39:54;;;;;;;0.50;0.50;;;;;;;;;;4993355;28;20446;-62
2022/02/18 00:42:20;;;;;;;0.45;0.45;;;;;;;;;;4994434;28;20228;-62
2022/02/18 00:44:46;;;;;;;0.50;0.50;;;;;;;;;;4994016;28;20241;-62
2022/02/18 00:47:12;;;;;;;0.50;0.50;;;;;;;;;;4994640;28;20170;-62
2022/02/18 00:49:38;;;;;;;0.50;0.50;;;;;;;;;;4994414;28;20252;-62
2022/02/18 00:52:05;;;;;;;0.50;0.50;;;;;;;;;;4994624;28;20179;-61
2022/02/18 00:54:31;;;;;;;0.40;0.40;;;;;;;;;;4994514;28;20189;-64
2022/02/18 00:56:56;;;;;;;0.40;0.40;;;;;;;;;;4994272;28;20170;-64
2022/02/18 00:59:23;;;;;;;0.40;0.40;;;;;;;;;;4994489;28;20424;-61
2022/02/18 01:01:49;;;;;;;0.40;0.40;;;;;;;;;;4994065;28;20405;-64
2022/02/18 01:04:15;;;;;;;0.50;0.50;;;;;;;;;;4994250;28;20229;-61
2022/02/18 01:06:41;;;;;;;0.40;0.40;;;;;;;;;;4994249;28;20178;-64
2022/02/18 01:09:07;;;;;;;0.40;0.40;;;;;;;;;;4992885;28;20202;-61
2022/02/18 01:11:34;;;;;;;0.40;0.40;;;;;;;;;;4993949;28;20483;-62
2022/02/18 01:14:00;;;;;;;0.40;0.40;;;;;;;;;;4994056;28;20178;-61
2022/02/18 01:16:27;;;;;;;0.40;0.40;;;;;;;;;;4994031;28;20189;-62
2022/02/18 01:18:57;;;;;;;0.50;0.50;;;;;;;;;;5014279;22;20229;-62
2022/02/18 01:21:23;;;;;;;0.40;0.40;;;;;;;;;;4972180;28;20191;-62
2022/02/18 01:23:49;;;;;;;0.40;0.40;;;;;;;;;;4974475;28;20175;-63
2022/02/18 01:26:15;;;;;;;0.40;0.40;;;;;;;;;;4974024;28;20261;-62
2022/02/18 01:28:41;;;;;;;0.40;0.40;;;;;;;;;;4973975;28;20430;-62
2022/02/18 01:31:07;;;;;;;0.50;0.50;;;;;;;;;;4974252;28;20454;-63
2022/02/18 01:33:33;;;;;;;0.40;0.40;;;;;;;;;;4974371;28;20531;-62
2022/02/18 01:36:00;;;;;;;0.40;0.40;;;;;;;;;;4974115;28;20621;-62
2022/02/18 01:38:26;;;;;;;0.40;0.40;;;;;;;;;;4973952;28;20417;-62
2022/02/18 01:40:52;;;;;;;0.40;0.40;;;;;;;;;;4973774;28;20179;-62
2022/02/18 01:43:18;;;;;;;0.40;0.40;;;;;;;;;;4974413;28;20750;-63
2022/02/18 01:45:44;;;;;;;0.40;0.40;;;;;;;;;;4973859;28;20902;-62
2022/02/18 01:48:10;;;;;;;0.50;0.50;;;;;;;;;;4973783;28;20183;-62
2022/02/18 01:50:37;;;;;;;0.47;0.47;;;;;;;;;;4956013;28;20249;-62
2022/02/18 01:53:08;;;;;;;0.50;0.50;;;;;;;;;;4973758;28;20217;-61
2022/02/18 01:55:34;;;;;;;0.40;0.40;;;;;;;;;;4973791;28;20191;-62
2022/02/18 01:58:02;;;;;;;0.40;0.40;;;;;;;;;;4972714;28;20182;-62
2022/02/18 02:00:29;;;;;;;0.40;0.40;;;;;;;;;;4973478;28;20206;-62
2022/02/18 02:02:56;;;;;;;0.40;0.40;;;;;;;;;;4973638;28;20174;-62
2022/02/18 02:05:22;;;;;;;0.50;0.50;;;;;;;;;;4973418;28;20202;-61
2022/02/18 02:07:48;;;;;;;0.50;0.50;;;;;;;;;;4973399;28;20186;-61
2022/02/18 02:10:15;;;;;;;0.47;0.47;;;;;;;;;;4972925;28;20211;-63
2022/02/18 02:12:42;;;;;;;0.50;0.50;;;;;;;;;;4972613;28;20659;-62
2022/02/18 02:15:09;;;;;;;0.40;0.40;;;;;;;;;;4973365;28;20209;-63
2022/02/18 02:17:35;;;;;;;0.40;0.40;;;;;;;;;;4973209;28;20175;-63
2022/02/18 02:20:03;;;;;;;0.40;0.40;;;;;;;;;;4972910;28;20213;-63
2022/02/18 02:22:29;;;;;;;0.60;0.60;;;;;;;;;;4972966;28;20306;-62
2022/02/18 02:24:55;;;;;;;0.40;0.40;;;;;;;;;;4973180;28;20215;-63
2022/02/18 02:27:25;;;;;;;0.50;0.50;;;;;;;;;;4973184;28;20418;-63
2022/02/18 02:29:51;;;;;;;0.47;0.47;;;;;;;;;;4972976;28;20216;-63
2022/02/18 02:32:17;;;;;;;0.60;0.60;;;;;;;;;;4972843;28;20181;-63
2022/02/18 02:34:44;;;;;;;0.40;0.40;;;;;;;;;;4972925;28;20176;-63
2022/02/18 02:37:10;;;;;;;0.50;0.50;;;;;;;;;;4972839;28;20666;-63
2022/02/18 02:39:36;;;;;;;0.50;0.50;;;;;;;;;;4972971;28;20203;-63
2022/02/18 02:42:03;;;;;;;0.50;0.50;;;;;;;;;;4972658;28;20198;-63
2022/02/18 02:44:29;;;;;;;0.40;0.40;;;;;;;;;;4972871;28;20241;-63
2022/02/18 02:46:55;;;;;;;0.50;0.50;;;;;;;;;;4972819;28;20193;-63
2022/02/18 02:49:21;;;;;;;0.50;0.50;;;;;;;;;;4972519;28;20206;-63
2022/02/18 02:51:47;;;;;;;0.50;0.50;;;;;;;;;;4972565;28;20175;-63
2022/02/18 02:54:13;;;;;;;0.50;0.50;;;;;;;;;;4972846;28;20207;-63
2022/02/18 02:56:39;;;;;;;0.50;0.50;;;;;;;;;;4972620;28;20182;-61
2022/02/18 02:59:05;;;;;;;0.40;0.40;;;;;;;;;;4972657;28;20195;-63
2022/02/18 03:01:31;;;;;;;0.40;0.40;;;;;;;;;;4972383;28;20415;-63
2022/02/18 03:03:57;;;;;;;0.50;0.50;;;;;;;;;;4972592;28;20488;-63
2022/02/18 03:06:24;;;;;;;0.50;0.50;;;;;;;;;;4972563;28;20406;-63
2022/02/18 03:08:50;;;;;;;0.40;0.40;;;;;;;;;;4974622;28;20691;-63
2022/02/18 03:11:16;;;;;;;0.40;0.40;;;;;;;;;;4976212;28;20694;-63
2022/02/18 03:13:43;;;;;;;0.50;0.50;;;;;;;;;;4976529;28;20667;-63
2022/02/18 03:16:09;;;;;;;0.40;0.40;;;;;;;;;;4976529;28;20651;-63
2022/02/18 03:18:35;;;;;;;0.60;0.60;;;;;;;;;;4976213;28;20186;-62
2022/02/18 03:21:01;;;;;;;0.40;0.40;;;;;;;;;;4976268;28;20922;-63
2022/02/18 03:23:28;;;;;;;0.40;0.40;;;;;;;;;;4975855;28;20972;-63
2022/02/18 03:25:54;;;;;;;0.40;0.40;;;;;;;;;;4976424;28;20410;-63
2022/02/18 03:28:19;;;;;;;0.50;0.50;;;;;;;;;;4976359;28;20179;-62
2022/02/18 03:30:45;;;;;;;0.50;0.50;;;;;;;;;;4975947;28;20753;-62
2022/02/18 03:33:11;;;;;;;0.50;0.50;;;;;;;;;;4976222;28;20453;-63
2022/02/18 03:35:38;;;;;;;0.50;0.50;;;;;;;;;;4976221;28;20206;-63
2022/02/18 03:38:04;;;;;;;0.50;0.50;;;;;;;;;;4976064;28;20414;-63
2022/02/18 03:40:30;;;;;;;0.40;0.40;;;;;;;;;;4975762;28;20202;-63
2022/02/18 03:42:57;;;;;;;0.40;0.40;;;;;;;;;;4976188;28;20194;-63
2022/02/18 03:45:23;;;;;;;0.40;0.40;;;;;;;;;;4976230;28;20226;-62
2022/02/18 03:47:49;;;;;;;0.50;0.50;;;;;;;;;;4958616;28;20175;-62
2022/02/18 03:50:15;;;;;;;0.50;0.50;;;;;;;;;;4975698;28;20218;-62
2022/02/18 03:52:41;;;;;;;0.50;0.50;;;;;;;;;;4975868;28;20410;-62
2022/02/18 03:55:07;;;;;;;0.50;0.50;;;;;;;;;;4975859;28;20175;-63
2022/02/18 03:57:33;;;;;;;0.50;0.50;;;;;;;;;;4975868;28;20437;-62
2022/02/18 03:59:59;;;;;;;0.40;0.40;;;;;;;;;;4975694;28;20195;-63
2022/02/18 04:02:25;;;;;;;0.50;0.50;;;;;;;;;;4975545;28;20472;-63
2022/02/18 04:04:51;;;;;;;0.50;0.50;;;;;;;;;;4975702;28;20437;-63
2022/02/18 04:07:17;;;;;;;0.50;0.50;;;;;;;;;;4975522;28;20841;-62
2022/02/18 04:09:42;;;;;;;0.60;0.60;;;;;;;;;;4975413;28;20458;-63
2022/02/18 04:12:08;;;;;;;0.50;0.50;;;;;;;;;;4975535;28;20421;-62
2022/02/18 04:14:34;;;;;;;0.50;0.50;;;;;;;;;;4975445;28;20411;-63
2022/02/18 04:17:00;;;;;;;0.50;0.50;;;;;;;;;;4975467;28;20300;-63
2022/02/18 04:19:26;;;;;;;0.50;0.50;;;;;;;;;;4974376;28;20446;-63
2022/02/18 04:21:52;;;;;;;0.50;0.50;;;;;;;;;;4974923;28;20425;-63
2022/02/18 04:24:18;;;;;;;0.40;0.40;;;;;;;;;;4975333;28;20755;-63
2022/02/18 04:26:44;;;;;;;0.50;0.50;;;;;;;;;;4975274;28;20942;-62
2022/02/18 04:29:11;;;;;;;0.50;0.50;;;;;;;;;;4975437;28;20473;-62
2022/02/18 04:31:37;;;;;;;0.40;0.40;;;;;;;;;;4974792;28;20490;-63
2022/02/18 04:34:03;;;;;;;0.50;0.50;;;;;;;;;;4975215;28;20175;-62
2022/02/18 04:36:29;;;;;;;0.40;0.40;;;;;;;;;;4974996;28;20437;-63
2022/02/18 04:38:55;;;;;;;0.45;0.45;;;;;;;;;;4974905;28;20195;-62
2022/02/18 04:41:22;;;;;;;0.50;0.50;;;;;;;;;;4974721;28;20171;-62
2022/02/18 04:43:48;;;;;;;0.40;0.40;;;;;;;;;;4975081;28;20495;-63
2022/02/18 04:46:14;;;;;;;0.60;0.60;;;;;;;;;;4974980;28;20254;-62
2022/02/18 04:48:40;;;;;;;0.50;0.50;;;;;;;;;;4974778;28;20477;-63
2022/02/18 04:51:06;;;;;;;0.50;0.50;;;;;;;;;;4974463;28;20207;-62
2022/02/18 04:53:32;;;;;;;0.50;0.50;;;;;;;;;;4974683;28;20175;-63
2022/02/18 04:55:58;;;;;;;0.50;0.50;;;;;;;;;;4974958;28;20449;-62
2022/02/18 04:58:24;;;;;;;0.50;0.50;;;;;;;;;;4974638;28;20415;-61
2022/02/18 05:00:50;;;;;;;0.50;0.50;;;;;;;;;;4974646;28;20411;-63
2022/02/18 05:03:16;;;;;;;0.50;0.50;;;;;;;;;;4974809;28;20559;-62
2022/02/18 05:05:42;;;;;;;0.40;0.40;;;;;;;;;;4974618;28;20422;-63
2022/02/18 05:08:08;;;;;;;0.50;0.50;;;;;;;;;;4974680;28;20414;-61
2022/02/18 05:10:35;;;;;;;0.40;0.40;;;;;;;;;;4974495;28;20211;-62
2022/02/18 05:13:01;;;;;;;0.50;0.50;;;;;;;;;;4974600;28;20234;-62
2022/02/18 05:15:27;;;;;;;0.40;0.40;;;;;;;;;;4974586;28;20179;-62
2022/02/18 05:17:53;;;;;;;0.50;0.50;;;;;;;;;;4974506;28;20426;-62
2022/02/18 05:20:19;;;;;;;0.50;0.50;;;;;;;;;;4973977;28;20450;-63
2022/02/18 05:22:45;;;;;;;0.50;0.50;;;;;;;;;;4974145;28;20418;-63
2022/02/18 05:25:11;;;;;;;0.50;0.50;;;;;;;;;;4974060;28;21000;-62
2022/02/18 05:27:37;;;;;;;0.47;0.47;;;;;;;;;;4974264;28;20213;-63
2022/02/18 05:30:04;;;;;;;0.40;0.40;;;;;;;;;;4974065;28;20199;-62
2022/02/18 05:32:30;;;;;;;0.50;0.50;;;;;;;;;;4973732;28;20543;-62
2022/02/18 05:34:56;;;;;;;0.50;0.50;;;;;;;;;;4974186;28;20172;-63
2022/02/18 05:37:22;;;;;;;0.50;0.50;;;;;;;;;;4973954;28;20174;-62
2022/02/18 05:39:48;;;;;;;0.50;0.50;;;;;;;;;;4973956;28;20472;-63
2022/02/18 05:42:14;;;;;;;0.50;0.50;;;;;;;;;;4973773;28;20205;-63
2022/02/18 05:44:40;;;;;;;0.47;0.47;;;;;;;;;;4973874;28;20406;-63
2022/02/18 05:47:06;;;;;;;0.50;0.50;;;;;;;;;;4973777;28;20622;-63
2022/02/18 05:49:32;;;;;;;0.50;0.50;;;;;;;;;;4973414;28;20434;-63
2022/02/18 05:51:58;;;;;;;0.50;0.50;;;;;;;;;;4973283;28;20415;-63
2022/02/18 05:54:25;;;;;;;0.40;0.40;;;;;;;;;;4973654;28;20410;-63
2022/02/18 05:56:51;;;;;;;0.50;0.50;;;;;;;;;;4973574;28;20175;-63
2022/02/18 05:59:20;;;;;;;0.43;0.43;;;;;;;;;;4973513;28;20190;-62
2022/02/18 06:01:46;;;;;;;0.40;0.40;;;;;;;;;;4973216;28;20558;-62
2022/02/18 06:04:12;;;;;;;0.50;0.50;;;;;;;;;;4975526;28;20175;-63
2022/02/18 06:06:39;;;;;;;0.50;0.50;;;;;;;;;;4977573;28;20255;-62
2022/02/18 06:09:05;;;;;;;0.43;0.43;;;;;;;;;;4978340;28;20205;-61
2022/02/18 06:11:31;;;;;;;0.40;0.40;;;;;;;;;;4976840;28;20230;-61
2022/02/18 06:13:57;;;;;;;0.50;0.50;;;;;;;;;;4974008;28;20430;-62
2022/02/18 06:16:23;;;;;;;0.40;0.40;;;;;;;;;;4973925;28;20482;-62
2022/02/18 06:18:49;;;;;;;0.43;0.43;;;;;;;;;;4973350;28;20587;-62
2022/02/18 06:21:15;;;;;;;0.40;0.40;;;;;;;;;;4973325;28;20179;-62
2022/02/18 06:23:41;;;;;;;0.50;0.50;;;;;;;;;;4973486;28;20414;-62
2022/02/18 06:26:07;;;;;;;0.47;0.47;;;;;;;;;;4973279;28;20414;-62
2022/02/18 06:28:33;;;;;;;0.50;0.50;;;;;;;;;;4973055;28;20417;-63
2022/02/18 06:30:59;;;;;;;0.50;0.50;;;;;;;;;;4972691;28;20520;-63
2022/02/18 06:33:25;;;;;;;0.40;0.40;;;;;;;;;;4973164;28;20407;-63
2022/02/18 06:35:51;;;;;;;0.50;0.50;;;;;;;;;;4973038;28;20883;-63
2022/02/18 06:38:17;;;;;;;0.40;0.40;;;;;;;;;;4972965;28;20449;-63
2022/02/18 06:40:43;;;;;;;0.50;0.50;;;;;;;;;;4972575;28;20427;-63
2022/02/18 06:43:09;;;;;;;0.50;0.50;;;;;;;;;;4972501;28;20406;-63
2022/02/18 06:45:34;;;;;;;0.50;0.50;;;;;;;;;;4972936;28;20759;-62
2022/02/18 06:48:00;;;;;;;0.40;0.40;;;;;;;;;;4972941;28;20414;-62
2022/02/18 06:50:26;;;;;;;0.50;0.50;;;;;;;;;;4972446;28;20462;-63
2022/02/18 06:52:53;;;;;;;0.50;0.50;;;;;;;;;;4972905;28;20406;-62
2022/02/18 06:55:24;;;;;;;0.50;0.50;;;;;;;;;;4955871;28;20167;-62
2022/02/18 06:57:50;;;;;;;0.50;0.50;;;;;;;;;;4972831;28;20204;-63
2022/02/18 07:00:17;;;;;;;0.40;0.40;;;;;;;;;;4972364;28;20207;-62
2022/02/18 07:02:43;;;;;;;0.40;0.40;;;;;;;;;;4972620;28;20206;-63
2022/02/18 07:05:10;;;;;;;0.50;0.50;;;;;;;;;;4972755;28;20198;-61
2022/02/18 07:07:36;;;;;;;0.50;0.50;;;;;;;;;;4972728;28;20270;-62
2022/02/18 07:10:06;;;;;;;0.50;0.50;;;;;;;;;;4972568;28;20293;-62
2022/02/18 07:12:32;;;;;;;0.50;0.50;;;;;;;;;;4972017;28;20178;-59
2022/02/18 07:14:58;;;;;;;0.40;0.40;;;;;;;;;;4971133;28;20594;-62
2022/02/18 07:17:24;;;;;;;0.40;0.40;;;;;;;;;;4971701;28;20205;-62
2022/02/18 07:19:54;;;;;;;0.50;0.50;;;;;;;;;;4972389;28;20214;-61
2022/02/18 07:22:20;;;;;;;0.90;0.90;;;;;;;;;;4996488;23;20178;-59
2022/02/18 07:24:46;;;;;;;0.50;0.50;;;;;;;;;;4997889;28;20215;-61
2022/02/18 07:27:12;;;;;;;0.50;0.50;;;;;;;;;;4995343;28;20405;-60
2022/02/18 07:29:38;;;;;;;0.50;0.50;;;;;;;;;;4996605;28;20180;-61
2022/02/18 07:32:04;;;;;;;0.40;0.40;;;;;;;;;;5003453;28;20432;-61
2022/02/18 07:34:30;;;;;;;0.50;0.50;;;;;;;;;;5011027;28;20529;-61
2022/02/18 07:36:57;;;;;;;0.50;0.50;;;;;;;;;;4993157;28;20228;-60
2022/02/18 07:39:23;;;;;;;0.50;0.50;;;;;;;;;;4991566;28;20182;-61
2022/02/18 07:41:49;;;;;;;0.50;0.50;;;;;;;;;;4991469;28;20179;-61
2022/02/18 07:44:14;;;;;;;0.50;0.50;;;;;;;;;;4991016;28;20451;-60
2022/02/18 07:46:41;;;;;;;0.50;0.50;;;;;;;;;;5003067;28;20937;-61
2022/02/18 07:49:07;;;;;;;0.50;0.50;;;;;;;;;;5001253;28;20503;-61
2022/02/18 07:51:33;;;;;;;0.50;0.50;;;;;;;;;;4989954;28;20609;-60
2022/02/18 07:53:59;;;;;;;0.40;0.40;;;;;;;;;;4990900;28;20210;-60
2022/02/18 07:56:24;;;;;;;0.50;0.50;;;;;;;;;;4994246;28;20508;-60
2022/02/18 07:58:50;;;;;;;0.43;0.43;;;;;;;;;;4994666;28;20297;-61
2022/02/18 08:01:19;;;;;;;0.40;0.40;;;;;;;;;;4994913;28;20433;-61
2022/02/18 08:03:46;;;;;;;0.50;0.50;;;;;;;;;;4994059;28;20495;-61
2022/02/18 08:06:12;;;;;;;0.50;0.50;;;;;;;;;;4999489;28;20264;-60
2022/02/18 08:08:42;;;;;;;0.50;0.50;;;;;;;;;;4994765;28;20188;-60
2022/02/18 08:11:08;;;;;;;0.43;0.43;;;;;;;;;;4994507;28;20300;-61
2022/02/18 08:13:34;;;;;;;0.40;0.40;;;;;;;;;;4993813;28;20193;-61
2022/02/18 08:16:00;;;;;;;0.40;0.40;;;;;;;;;;4993532;28;20171;-61
2022/02/18 08:18:26;;;;;;;0.40;0.40;;;;;;;;;;4994747;28;20432;-60
2022/02/18 08:20:52;;;;;;;0.50;0.50;;;;;;;;;;4994372;28;20500;-61
2022/02/18 08:23:18;;;;;;;0.50;0.50;;;;;;;;;;4994469;28;20495;-61
2022/02/18 08:25:44;;;;;;;0.50;0.50;;;;;;;;;;4994674;28;20897;-61
2022/02/18 08:28:11;;;;;;;0.40;0.40;;;;;;;;;;4994121;28;20175;-61
2022/02/18 08:30:36;;;;;;;0.50;0.50;;;;;;;;;;4994248;28;20201;-61
2022/02/18 08:33:02;;;;;;;0.40;0.40;;;;;;;;;;4994341;28;20191;-61
2022/02/18 08:35:28;;;;;;;0.50;0.50;;;;;;;;;;4994132;28;20430;-61
2022/02/18 08:37:55;;;;;;;0.50;0.50;;;;;;;;;;4994431;28;20171;-59
2022/02/18 08:40:21;;;;;;;0.50;0.50;;;;;;;;;;4993629;28;20501;-61
2022/02/18 08:42:48;;;;;;;0.40;0.40;;;;;;;;;;4994216;28;20371;-61
2022/02/18 08:45:14;;;;;;;0.50;0.50;;;;;;;;;;4994327;28;20209;-61
2022/02/18 08:47:40;;;;;;;0.50;0.50;;;;;;;;;;4994065;28;20178;-61
2022/02/18 08:50:09;;;;;;;0.43;0.43;;;;;;;;;;4993619;28;20206;-58
2022/02/18 08:52:35;;;;;;;0.40;0.40;;;;;;;;;;4994012;28;20801;-61
2022/02/18 08:55:01;;;;;;;0.50;0.50;;;;;;;;;;4994173;28;20261;-61
2022/02/18 08:57:27;;;;;;;0.40;0.40;;;;;;;;;;4994005;28;20187;-61
2022/02/18 08:59:53;;;;;;;0.40;0.40;;;;;;;;;;4992382;28;20178;-62
2022/02/18 09:02:19;;;;;;;0.40;0.40;;;;;;;;;;4993117;28;20402;-61
2022/02/18 09:04:45;;;;;;;0.50;0.50;;;;;;;;;;5001513;28;20833;-61
2022/02/18 09:07:11;;;;;;;0.40;0.40;;;;;;;;;;5001753;28;20179;-62
2022/02/18 09:09:37;;;;;;;0.40;0.40;;;;;;;;;;5004139;28;20414;-61
2022/02/18 09:12:03;;;;;;;0.40;0.40;;;;;;;;;;5001841;28;20412;-61
2022/02/18 09:14:29;;;;;;;0.47;0.47;;;;;;;;;;4995882;28;20472;-62
2022/02/18 09:16:55;;;;;;;0.40;0.40;;;;;;;;;;4993414;28;20178;-61
2022/02/18 09:19:21;;;;;;;0.40;0.40;;;;;;;;;;4993949;28;20178;-61
2022/02/18 09:21:47;;;;;;;0.50;0.50;;;;;;;;;;4993381;28;20385;-62
2022/02/18 09:24:15;;;;;;;0.40;0.40;;;;;;;;;;4993455;28;20889;-61
2022/02/18 09:26:41;;;;;;;0.40;0.40;;;;;;;;;;5003934;28;20478;-62
2022/02/18 09:29:07;;;;;;;0.40;0.40;;;;;;;;;;5013061;28;20185;-61
2022/02/18 09:31:33;;;;;;;0.50;0.50;;;;;;;;;;5012439;28;20467;-61
2022/02/18 09:33:59;;;;;;;0.40;0.40;;;;;;;;;;5013106;28;20500;-62
2022/02/18 09:36:25;;;;;;;0.40;0.40;;;;;;;;;;5012873;28;20405;-61
2022/02/18 09:38:51;;;;;;;0.40;0.40;;;;;;;;;;5013286;28;20409;-60
2022/02/18 09:41:17;;;;;;;0.40;0.40;;;;;;;;;;5012651;28;20424;-59
2022/02/18 09:43:43;;;;;;;0.40;0.40;;;;;;;;;;5012844;28;20467;-61
2022/02/18 09:46:09;;;;;;;0.40;0.40;;;;;;;;;;5012736;28;20503;-61
2022/02/18 09:48:38;;;;;;;0.40;0.40;;;;;;;;;;5012727;28;20175;-61
2022/02/18 09:51:04;;;;;;;0.40;0.40;;;;;;;;;;5012424;28;20211;-61
2022/02/18 09:53:31;;;;;;;0.40;0.40;;;;;;;;;;5012678;28;20429;-61
2022/02/18 09:55:57;;;;;;;0.40;0.40;;;;;;;;;;5012609;28;20537;-61
2022/02/18 09:58:23;;;;;;;0.40;0.40;;;;;;;;;;5012617;28;20776;-60
2022/02/18 10:00:50;;;;;;;0.40;0.40;;;;;;;;;;5012214;28;20813;-61
2022/02/18 10:03:16;;;;;;;0.40;0.40;;;;;;;;;;5012447;28;20427;-61
2022/02/18 10:05:42;;;;;;;0.40;0.40;;;;;;;;;;5012551;28;20502;-62
2022/02/18 10:08:13;;;;;;;0.40;0.40;;;;;;;;;;5012472;28;20514;-61
2022/02/18 10:10:41;;;;;;;0.40;0.40;;;;;;;;;;5012065;28;20467;-62
2022/02/18 10:13:23;;;;;;;0.40;0.40;;;;;;;;;;5012218;28;20427;-61
2022/02/18 10:15:49;;;;;;;0.40;0.40;;;;;;;;;;5012296;28;20405;-60
2022/02/18 10:18:15;;;;;;;0.40;0.40;;;;;;;;;;5011565;28;20407;-62
2022/02/18 10:20:43;;;;;;;0.40;0.40;;;;;;;;;;4994125;28;20447;-62
2022/02/18 10:23:09;;;;;;;0.40;0.40;;;;;;;;;;4992228;28;21106;-61
2022/02/18 10:25:36;;;;;;;0.40;0.40;;;;;;;;;;4992331;28;20410;-61
2022/02/18 10:28:03;;;;;;;0.40;0.40;;;;;;;;;;4992464;28;20800;-60
2022/02/18 10:30:31;;;;;;;0.40;0.40;;;;;;;;;;4992234;28;20457;-60
2022/02/18 10:32:58;;;;;;;0.40;0.40;;;;;;;;;;4992212;28;20429;-60
2022/02/18 10:35:31;;;;;;;0.40;0.40;;;;;;;;;;4991914;28;20409;-60
2022/02/18 10:37:57;;;;;;;0.40;0.40;;;;;;;;;;4992290;28;20405;-62
2022/02/18 10:40:23;;;;;;;0.40;0.40;;;;;;;;;;4991784;28;20414;-60
2022/02/18 10:42:51;;;;;;;0.40;0.40;;;;;;;;;;4992339;28;20441;-60
2022/02/18 10:45:20;;;;;;;0.40;0.40;;;;;;;;;;4992211;28;20436;-60
2022/02/18 10:47:47;;;;;;;0.40;0.40;;;;;;;;;;4992197;28;20833;-60
2022/02/18 10:50:24;;;;;;;0.40;0.40;;;;;;;;;;4992032;28;20464;-60
2022/02/18 10:53:09;;;;;;;0.40;0.40;;;;;;;;;;4992108;28;20435;-58
2022/02/18 10:55:54;;;;;;;0.40;0.40;;;;;;;;;;4992135;28;20410;-60
2022/02/18 10:58:23;;;;;;;0.40;0.40;;;;;;;;;;4992082;28;20405;-60
2022/02/18 11:01:02;;;;;;;0.40;0.40;;;;;;;;;;4991868;28;20417;-59
2022/02/18 11:03:29;;;;;;;0.30;0.30;;;;;;;;;;4991970;28;20804;-60
2022/02/18 11:05:55;;;;;;;0.40;0.40;;;;;;;;;;4992160;28;20509;-60
2022/02/18 11:08:30;;;;;;;0.30;0.30;;;;;;;;;;4991716;28;20897;-61
2022/02/18 11:10:56;;;;;;;0.40;0.40;;;;;;;;;;4991551;28;20464;-61
2022/02/18 11:13:22;;;;;;;0.30;0.30;;;;;;;;;;4991995;28;20425;-61
2022/02/18 11:15:50;;;;;;;0.30;0.30;;;;;;;;;;4992063;28;20777;-61
2022/02/18 11:18:17;;;;;;;0.30;0.30;;;;;;;;;;4992051;28;20452;-60
2022/02/18 11:20:44;;;;;;;0.30;0.30;;;;;;;;;;4991873;28;20384;-60
2022/02/18 11:23:10;;;;;;;0.30;0.30;;;;;;;;;;4991828;28;20456;-60
2022/02/18 11:25:36;;;;;;;0.30;0.30;;;;;;;;;;4991981;28;20409;-61
2022/02/18 11:28:05;;;;;;;0.30;0.30;;;;;;;;;;4991877;28;20541;-61
2022/02/18 11:30:32;;;;;;;0.30;0.30;;;;;;;;;;4994853;28;20460;-61
2022/02/18 11:33:14;;;;;;;0.30;0.30;;;;;;;;;;4995647;28;20948;-61
2022/02/18 11:36:03;;;;;;;0.40;0.40;;;;;;;;;;4995744;28;20409;-60
2022/02/18 11:38:32;;;;;;;0.30;0.30;;;;;;;;;;4995731;28;21090;-60
2022/02/18 11:40:57;;;;;;;0.40;0.40;;;;;;;;;;4995319;28;20410;-61
2022/02/18 11:43:32;;;;;;;0.40;0.40;;;;;;;;;;4995529;28;20437;-62
2022/02/18 11:46:03;;;;;;;0.40;0.40;;;;;;;;;;4995722;28;20507;-60
2022/02/18 11:48:38;;;;;;;0.40;0.40;;;;;;;;;;4995560;28;20774;-60
2022/02/18 11:51:11;;;;;;;0.30;0.30;;;;;;;;;;4995115;28;20959;-62
2022/02/18 11:53:37;;;;;;;0.30;0.30;;;;;;;;;;4995502;28;20434;-61
2022/02/18 11:56:03;;;;;;;0.40;0.40;;;;;;;;;;4995354;28;20413;-61
2022/02/18 11:58:47;;;;;;;0.30;0.30;;;;;;;;;;4995305;28;20417;-61
2022/02/18 12:01:13;;;;;;;0.30;0.30;;;;;;;;;;4995071;28;20809;-62
2022/02/18 12:03:40;;;;;;;0.30;0.30;;;;;;;;;;4995051;28;20801;-61
2022/02/18 12:06:10;;;;;;;0.40;0.40;;;;;;;;;;4995288;28;20513;-60
2022/02/18 12:08:38;;;;;;;0.40;0.40;;;;;;;;;;4995153;28;20805;-60
2022/02/18 12:11:14;;;;;;;0.30;0.30;;;;;;;;;;4993947;28;20480;-61
2022/02/18 12:13:52;;;;;;;0.40;0.40;;;;;;;;;;4995017;28;20874;-60
2022/02/18 12:16:18;;;;;;;0.40;0.40;;;;;;;;;;4994907;28;20803;-61
2022/02/18 12:19:00;;;;;;;0.30;0.30;;;;;;;;;;4994484;28;20437;-61
2022/02/18 12:21:26;;;;;;;0.40;0.40;;;;;;;;;;4994542;28;20439;-60
2022/02/18 12:23:52;;;;;;;0.30;0.30;;;;;;;;;;4994528;28;20952;-61
2022/02/18 12:26:19;;;;;;;0.30;0.30;;;;;;;;;;4994552;28;20755;-61
2022/02/18 12:28:45;;;;;;;0.37;0.37;;;;;;;;;;4994942;28;20428;-61
2022/02/18 12:31:11;;;;;;;0.37;0.37;;;;;;;;;;4994359;28;20472;-61
2022/02/18 12:33:38;;;;;;;0.40;0.40;;;;;;;;;;4994470;28;20909;-60
2022/02/18 12:36:07;;;;;;;0.30;0.30;;;;;;;;;;4994675;28;20413;-60
2022/02/18 12:38:33;;;;;;;0.40;0.40;;;;;;;;;;4994532;28;20540;-60
2022/02/18 12:41:03;;;;;;;0.40;0.40;;;;;;;;;;4993267;28;20520;-61
2022/02/18 12:43:29;;;;;;;0.30;0.30;;;;;;;;;;4994552;28;20863;-61
2022/02/18 12:45:57;;;;;;;0.30;0.30;;;;;;;;;;4994399;28;20433;-61
2022/02/18 12:48:30;;;;;;;0.40;0.40;;;;;;;;;;4994311;28;20418;-60
2022/02/18 12:50:58;;;;;;;0.40;0.40;;;;;;;;;;4994080;28;20464;-60
2022/02/18 12:53:24;;;;;;;0.40;0.40;;;;;;;;;;4994030;28;20776;-60
2022/02/18 12:55:50;;;;;;;0.30;0.30;;;;;;;;;;4994022;28;20413;-61
2022/02/18 12:58:16;;;;;;;0.40;0.40;;;;;;;;;;4994120;28;20496;-60
2022/02/18 13:00:42;;;;;;;0.40;0.40;;;;;;;;;;4993716;28;20414;-60
2022/02/18 13:03:08;;;;;;;0.40;0.40;;;;;;;;;;4993973;28;20433;-60
2022/02/18 13:05:36;;;;;;;0.40;0.40;;;;;;;;;;4994107;28;20391;-61
2022/02/18 13:08:22;;;;;;;0.40;0.40;;;;;;;;;;4993949;28;20421;-61
2022/02/18 13:10:49;;;;;;;0.40;0.40;;;;;;;;;;4993533;28;20469;-60
2022/02/18 13:13:19;;;;;;;0.33;0.33;;;;;;;;;;4994702;28;20408;-60
2022/02/18 13:15:46;;;;;;;0.40;0.40;;;;;;;;;;4993927;28;20943;-60
2022/02/18 13:18:12;;;;;;;0.40;0.40;;;;;;;;;;4993886;28;20414;-60
2022/02/18 13:20:40;;;;;;;0.30;0.30;;;;;;;;;;4993511;28;20432;-60
2022/02/18 13:23:26;;;;;;;0.40;0.40;;;;;;;;;;5021850;22;20496;-62
2022/02/18 13:25:53;;;;;;;0.40;0.40;;;;;;;;;;5013441;28;20797;-62
2022/02/18 13:28:20;;;;;;;0.30;0.30;;;;;;;;;;5013319;28;20400;-62
2022/02/18 13:30:48;;;;;;;0.30;0.30;;;;;;;;;;5013052;28;20547;-62
2022/02/18 13:33:24;;;;;;;0.40;0.40;;;;;;;;;;5013079;28;20436;-62
2022/02/18 13:35:57;;;;;;;0.40;0.40;;;;;;;;;;5013267;28;20401;-62
2022/02/18 13:38:31;;;;;;;0.40;0.40;;;;;;;;;;5013199;28;20928;-62
2022/02/18 13:41:05;;;;;;;0.40;0.40;;;;;;;;;;5012912;28;20416;-62
2022/02/18 13:43:35;;;;;;;0.40;0.40;;;;;;;;;;5012911;28;20520;-62
2022/02/18 13:46:01;;;;;;;0.40;0.40;;;;;;;;;;5013247;28;20459;-62
2022/02/18 13:48:27;;;;;;;0.40;0.40;;;;;;;;;;5013037;28;20820;-62
2022/02/18 13:50:54;;;;;;;0.40;0.40;;;;;;;;;;5012626;28;20460;-62
2022/02/18 13:53:21;;;;;;;0.30;0.30;;;;;;;;;;5012771;28;20432;-62
2022/02/18 13:55:47;;;;;;;0.30;0.30;;;;;;;;;;5012844;28;20482;-62
2022/02/18 13:58:22;;;;;;;0.40;0.40;;;;;;;;;;5012588;28;20404;-62
2022/02/18 14:00:48;;;;;;;0.30;0.30;;;;;;;;;;5012406;28;20811;-62
2022/02/18 14:03:18;;;;;;;0.40;0.40;;;;;;;;;;5012594;28;20439;-62
2022/02/18 14:05:45;;;;;;;0.40;0.40;;;;;;;;;;5012612;28;20401;-62
2022/02/18 14:08:14;;;;;;;0.40;0.40;;;;;;;;;;5011571;28;20389;-62
2022/02/18 14:10:50;;;;;;;0.40;0.40;;;;;;;;;;5011879;28;20456;-62
2022/02/18 14:13:23;;;;;;;0.40;0.40;;;;;;;;;;5012081;28;20432;-62
2022/02/18 14:16:05;;;;;;;0.33;0.33;;;;;;;;;;5010264;28;20984;-62
2022/02/18 14:18:31;;;;;;;0.40;0.40;;;;;;;;;;5012064;28;20413;-62
2022/02/18 14:21:04;;;;;;;0.40;0.40;;;;;;;;;;5012227;28;20514;-62
2022/02/18 14:23:31;;;;;;;0.40;0.40;;;;;;;;;;5012088;28;20484;-62
2022/02/18 14:25:57;;;;;;;0.40;0.40;;;;;;;;;;5012380;28;20615;-62
2022/02/18 14:28:25;;;;;;;0.40;0.40;;;;;;;;;;5012373;28;20475;-62
2022/02/18 14:30:56;;;;;;;0.40;0.40;;;;;;;;;;5011962;28;20455;-62
2022/02/18 14:33:22;;;;;;;0.40;0.40;;;;;;;;;;5012246;28;20460;-62
2022/02/18 14:35:48;;;;;;;0.40;0.40;;;;;;;;;;5012176;28;20405;-63
2022/02/18 14:38:15;;;;;;;0.40;0.40;;;;;;;;;;5012212;28;20416;-63
2022/02/18 14:40:46;;;;;;;0.40;0.40;;;;;;;;;;5012035;28;20408;-63
2022/02/18 14:43:12;;;;;;;0.40;0.40;;;;;;;;;;5012156;28;20519;-63